sensor_id;sensor_type;location;lat;lon;timestamp;pressure;altitude;pressure_sealevel;temperature;humidity
28267;BME280;15525;45.568;5.448;2023-02-03T00:00:07;99785.47;;;6.50;57.62
28267;BME280;15525;45.568;5.448;2023-02-03T00:02:33;99794.84;;;6.46;58.31
28267;BME280;15525;45.568;5.448;2023-02-03T00:04:58;99792.94;;;6.27;58.94
28267;BME280;15525;45.568;5.448;2023-02-03T00:07:24;99789.13;;;6.42;58.21
28267;BME280;15525;45.568;5.448;2023-02-03T00:09:49;99789.13;;;6.42;58.44
28267;BME280;15525;45.568;5.448;2023-02-03T00:12:15;99792.91;;;5.80;60.93
28267;BME280;15525;45.568;5.448;2023-02-03T00:14:40;99787.19;;;5.83;60.93
28267;BME280;15525;45.568;5.448;2023-02-03T00:17:06;99788.81;;;6.18;60.24
28267;BME280;15525;45.568;5.448;2023-02-03T00:19:31;99787.78;;;6.19;60.30
28267;BME280;15525;45.568;5.448;2023-02-03T00:21:57;99786.50;;;6.02;61.00
28267;BME280;15525;45.568;5.448;2023-02-03T00:24:22;99783.72;;;6.23;60.01
28267;BME280;15525;45.568;5.448;2023-02-03T00:26:48;99787.59;;;6.20;59.71
28267;BME280;15525;45.568;5.448;2023-02-03T00:29:14;99790.97;;;6.48;59.28
28267;BME280;15525;45.568;5.448;2023-02-03T00:31:39;99789.53;;;6.39;59.45
28267;BME280;15525;45.568;5.448;2023-02-03T00:34:05;99794.59;;;6.28;60.31
28267;BME280;15525;45.568;5.448;2023-02-03T00:36:30;99792.47;;;6.70;59.32
28267;BME280;15525;45.568;5.448;2023-02-03T00:38:56;99788.81;;;6.84;58.62
28267;BME280;15525;45.568;5.448;2023-02-03T00:41:21;99773.88;;;6.77;58.43
28267;BME280;15525;45.568;5.448;2023-02-03T00:43:47;99777.59;;;6.89;58.19
28267;BME280;15525;45.568;5.448;2023-02-03T00:46:14;99786.34;;;6.70;59.32
28267;BME280;15525;45.568;5.448;2023-02-03T00:48:39;99787.22;;;6.90;58.27
28267;BME280;15525;45.568;5.448;2023-02-03T00:51:05;99779.59;;;6.74;59.54
28267;BME280;15525;45.568;5.448;2023-02-03T00:53:31;99778.19;;;6.91;58.46
28267;BME280;15525;45.568;5.448;2023-02-03T00:55:56;99780.97;;;6.44;60.07
28267;BME280;15525;45.568;5.448;2023-02-03T00:58:22;99766.13;;;6.88;58.56
28267;BME280;15525;45.568;5.448;2023-02-03T01:00:47;99779.81;;;6.79;59.12
28267;BME280;15525;45.568;5.448;2023-02-03T01:03:12;99772.47;;;6.87;59.10
28267;BME280;15525;45.568;5.448;2023-02-03T01:05:38;99767.69;;;6.50;60.23
28267;BME280;15525;45.568;5.448;2023-02-03T01:08:03;99773.06;;;6.83;59.09
28267;BME280;15525;45.568;5.448;2023-02-03T01:10:29;99766.09;;;6.82;59.30
28267;BME280;15525;45.568;5.448;2023-02-03T01:12:55;99772.66;;;6.86;59.26
28267;BME280;15525;45.568;5.448;2023-02-03T01:15:20;99753.63;;;6.82;59.07
28267;BME280;15525;45.568;5.448;2023-02-03T01:17:46;99761.41;;;6.77;59.62
28267;BME280;15525;45.568;5.448;2023-02-03T01:20:11;99765.72;;;6.98;58.80
28267;BME280;15525;45.568;5.448;2023-02-03T01:22:38;99772.88;;;6.97;58.60
28267;BME280;15525;45.568;5.448;2023-02-03T01:25:04;99769.00;;;7.00;58.27
28267;BME280;15525;45.568;5.448;2023-02-03T01:27:32;99777.59;;;6.16;61.28
28267;BME280;15525;45.568;5.448;2023-02-03T01:29:57;99777.66;;;6.42;60.80
28267;BME280;15525;45.568;5.448;2023-02-03T01:32:23;99776.72;;;6.69;59.61
28267;BME280;15525;45.568;5.448;2023-02-03T01:34:48;99777.97;;;6.79;58.88
28267;BME280;15525;45.568;5.448;2023-02-03T01:37:14;99789.53;;;6.39;59.81
28267;BME280;15525;45.568;5.448;2023-02-03T01:39:41;99772.63;;;6.06;60.95
28267;BME280;15525;45.568;5.448;2023-02-03T01:42:08;99766.78;;;5.83;61.64
28267;BME280;15525;45.568;5.448;2023-02-03T01:50:11;99776.09;;;6.60;59.04
28267;BME280;15525;45.568;5.448;2023-02-03T01:52:41;99765.03;;;6.57;58.98
28267;BME280;15525;45.568;5.448;2023-02-03T01:55:13;99773.75;;;6.38;60.13
28267;BME280;15525;45.568;5.448;2023-02-03T01:57:53;99770.78;;;6.60;58.97
28267;BME280;15525;45.568;5.448;2023-02-03T02:00:20;99771.94;;;6.38;59.06
28267;BME280;15525;45.568;5.448;2023-02-03T02:02:47;99770.22;;;6.18;59.90
28267;BME280;15525;45.568;5.448;2023-02-03T02:07:44;99764.44;;;6.08;59.67
28267;BME280;15525;45.568;5.448;2023-02-03T02:10:11;99766.09;;;6.09;59.27
28267;BME280;15525;45.568;5.448;2023-02-03T02:12:37;99767.38;;;5.85;59.70
28267;BME280;15525;45.568;5.448;2023-02-03T02:15:03;99773.66;;;6.05;59.48
28267;BME280;15525;45.568;5.448;2023-02-03T02:20:30;99770.44;;;6.23;58.63
28267;BME280;15525;45.568;5.448;2023-02-03T02:34:34;99777.59;;;5.82;58.73
28267;BME280;15525;45.568;5.448;2023-02-03T02:37:06;99772.66;;;5.79;58.33
28267;BME280;15525;45.568;5.448;2023-02-03T02:39:46;99749.97;;;5.76;58.33
28267;BME280;15525;45.568;5.448;2023-02-03T02:44:54;99764.38;;;5.61;58.75
28267;BME280;15525;45.568;5.448;2023-02-03T02:47:23;99753.72;;;5.54;58.42
28267;BME280;15525;45.568;5.448;2023-02-03T02:52:55;99763.47;;;5.47;58.51
28267;BME280;15525;45.568;5.448;2023-02-03T02:55:30;99769.03;;;5.59;58.17
28267;BME280;15525;45.568;5.448;2023-02-03T02:58:00;99769.94;;;5.11;59.72
28267;BME280;15525;45.568;5.448;2023-02-03T03:00:33;99776.75;;;4.99;59.73
28267;BME280;15525;45.568;5.448;2023-02-03T03:03:19;99777.84;;;5.32;58.85
28267;BME280;15525;45.568;5.448;2023-02-03T03:05:51;99779.41;;;5.20;59.25
28267;BME280;15525;45.568;5.448;2023-02-03T03:08:26;99777.53;;;5.41;58.35
28267;BME280;15525;45.568;5.448;2023-02-03T03:10:55;99780.41;;;5.46;57.72
28267;BME280;15525;45.568;5.448;2023-02-03T03:13:27;99778.31;;;5.42;57.13
28267;BME280;15525;45.568;5.448;2023-02-03T03:15:55;99778.88;;;5.10;58.23
28267;BME280;15525;45.568;5.448;2023-02-03T03:18:28;99783.81;;;5.13;58.18
28267;BME280;15525;45.568;5.448;2023-02-03T03:20:58;99782.13;;;5.05;58.37
28267;BME280;15525;45.568;5.448;2023-02-03T03:23:33;99780.00;;;5.22;57.83
28267;BME280;15525;45.568;5.448;2023-02-03T03:26:08;99782.78;;;4.86;59.42
28267;BME280;15525;45.568;5.448;2023-02-03T03:28:44;99793.75;;;5.04;58.43
28267;BME280;15525;45.568;5.448;2023-02-03T03:31:11;99783.81;;;5.13;57.83
28267;BME280;15525;45.568;5.448;2023-02-03T03:33:37;99787.13;;;4.94;57.96
28267;BME280;15525;45.568;5.448;2023-02-03T03:36:25;99789.50;;;4.47;60.18
28267;BME280;15525;45.568;5.448;2023-02-03T03:39:01;99789.75;;;4.73;59.09
28267;BME280;15525;45.568;5.448;2023-02-03T03:44:02;99789.44;;;4.61;58.68
28267;BME280;15525;45.568;5.448;2023-02-03T03:46:33;99793.28;;;4.59;59.49
28267;BME280;15525;45.568;5.448;2023-02-03T03:49:02;99791.50;;;4.80;58.56
28267;BME280;15525;45.568;5.448;2023-02-03T03:51:53;99783.25;;;4.75;57.74
28267;BME280;15525;45.568;5.448;2023-02-03T03:54:22;99793.47;;;4.22;59.48
28267;BME280;15525;45.568;5.448;2023-02-03T03:57:02;99785.84;;;4.48;58.94
28267;BME280;15525;45.568;5.448;2023-02-03T03:59:33;99779.50;;;4.28;59.49
28267;BME280;15525;45.568;5.448;2023-02-03T04:02:00;99787.56;;;4.41;59.23
28267;BME280;15525;45.568;5.448;2023-02-03T04:04:31;99784.81;;;4.13;60.33
28267;BME280;15525;45.568;5.448;2023-02-03T04:06:57;99784.78;;;4.28;59.83
28267;BME280;15525;45.568;5.448;2023-02-03T04:09:23;99777.88;;;4.48;59.37
28267;BME280;15525;45.568;5.448;2023-02-03T04:11:49;99780.63;;;4.40;58.44
28267;BME280;15525;45.568;5.448;2023-02-03T04:14:28;99773.97;;;4.44;58.02
28267;BME280;15525;45.568;5.448;2023-02-03T04:16:54;99792.66;;;4.21;59.41
28267;BME280;15525;45.568;5.448;2023-02-03T04:19:20;99784.47;;;4.52;58.93
28267;BME280;15525;45.568;5.448;2023-02-03T04:21:45;99782.09;;;4.42;58.43
28267;BME280;15525;45.568;5.448;2023-02-03T04:24:10;99764.13;;;3.88;60.65
28267;BME280;15525;45.568;5.448;2023-02-03T04:26:37;99780.94;;;4.30;59.56
28267;BME280;15525;45.568;5.448;2023-02-03T04:29:02;99781.31;;;4.27;59.37
28267;BME280;15525;45.568;5.448;2023-02-03T04:31:28;99786.00;;;4.46;58.43
28267;BME280;15525;45.568;5.448;2023-02-03T04:33:54;99782.53;;;4.46;58.18
28267;BME280;15525;45.568;5.448;2023-02-03T04:36:19;99789.09;;;4.50;57.77
28267;BME280;15525;45.568;5.448;2023-02-03T04:38:45;99793.53;;;4.43;58.22
28267;BME280;15525;45.568;5.448;2023-02-03T04:41:10;99781.47;;;4.40;58.28
28267;BME280;15525;45.568;5.448;2023-02-03T04:43:36;99785.38;;;3.94;59.99
28267;BME280;15525;45.568;5.448;2023-02-03T04:46:01;99790.66;;;4.09;59.63
28267;BME280;15525;45.568;5.448;2023-02-03T04:48:27;99797.72;;;4.37;59.25
28267;BME280;15525;45.568;5.448;2023-02-03T04:50:53;99785.16;;;4.10;59.86
28267;BME280;15525;45.568;5.448;2023-02-03T04:53:18;99785.63;;;4.14;59.35
28267;BME280;15525;45.568;5.448;2023-02-03T04:55:47;99793.22;;;4.02;59.68
28267;BME280;15525;45.568;5.448;2023-02-03T04:58:13;99782.78;;;4.30;58.75
28267;BME280;15525;45.568;5.448;2023-02-03T05:00:38;99771.75;;;4.12;59.53
28267;BME280;15525;45.568;5.448;2023-02-03T05:03:04;99769.94;;;4.12;59.40
28267;BME280;15525;45.568;5.448;2023-02-03T05:05:29;99756.75;;;4.19;58.41
28267;BME280;15525;45.568;5.448;2023-02-03T05:07:54;99761.50;;;4.23;58.28
28267;BME280;15525;45.568;5.448;2023-02-03T05:10:20;99768.13;;;3.98;59.31
28267;BME280;15525;45.568;5.448;2023-02-03T05:12:45;99759.13;;;4.14;58.71
28267;BME280;15525;45.568;5.448;2023-02-03T05:15:11;99756.75;;;4.19;58.13
28267;BME280;15525;45.568;5.448;2023-02-03T05:17:36;99752.75;;;4.08;58.58
28267;BME280;15525;45.568;5.448;2023-02-03T05:20:04;99745.63;;;4.09;58.78
28267;BME280;15525;45.568;5.448;2023-02-03T05:22:30;99739.19;;;4.18;58.72
28267;BME280;15525;45.568;5.448;2023-02-03T05:24:56;99736.03;;;3.93;58.57
28267;BME280;15525;45.568;5.448;2023-02-03T05:27:21;99734.44;;;3.63;60.89
28267;BME280;15525;45.568;5.448;2023-02-03T05:29:46;99726.25;;;3.58;61.08
28267;BME280;15525;45.568;5.448;2023-02-03T05:32:12;99730.03;;;3.99;59.91
28267;BME280;15525;45.568;5.448;2023-02-03T05:34:37;99729.50;;;3.75;60.44
28267;BME280;15525;45.568;5.448;2023-02-03T05:37:03;99722.13;;;3.56;61.24
28267;BME280;15525;45.568;5.448;2023-02-03T05:39:28;99727.91;;;3.95;59.83
28267;BME280;15525;45.568;5.448;2023-02-03T05:41:54;99726.28;;;3.94;59.51
28267;BME280;15525;45.568;5.448;2023-02-03T05:44:24;99727.28;;;4.07;58.83
28267;BME280;15525;45.568;5.448;2023-02-03T05:46:56;99730.56;;;3.95;58.71
28267;BME280;15525;45.568;5.448;2023-02-03T05:49:22;99738.31;;;4.11;58.58
28267;BME280;15525;45.568;5.448;2023-02-03T05:51:48;99727.06;;;4.09;58.42
28267;BME280;15525;45.568;5.448;2023-02-03T05:54:15;99717.91;;;3.76;59.23
28267;BME280;15525;45.568;5.448;2023-02-03T05:56:40;99725.66;;;3.63;60.25
28267;BME280;15525;45.568;5.448;2023-02-03T05:59:06;99723.56;;;3.73;59.84
28267;BME280;15525;45.568;5.448;2023-02-03T06:01:32;99708.16;;;3.76;58.80
28267;BME280;15525;45.568;5.448;2023-02-03T06:03:59;99735.78;;;4.03;58.09
28267;BME280;15525;45.568;5.448;2023-02-03T06:06:24;99734.81;;;3.89;58.99
28267;BME280;15525;45.568;5.448;2023-02-03T06:08:51;99727.75;;;3.82;59.03
28267;BME280;15525;45.568;5.448;2023-02-03T06:11:20;99729.28;;;3.91;58.91
28267;BME280;15525;45.568;5.448;2023-02-03T06:13:49;99729.91;;;3.57;59.56
28267;BME280;15525;45.568;5.448;2023-02-03T06:16:14;99720.03;;;3.66;59.17
28267;BME280;15525;45.568;5.448;2023-02-03T06:18:40;99731.69;;;3.86;58.62
28267;BME280;15525;45.568;5.448;2023-02-03T06:21:06;99727.66;;;3.90;58.60
28267;BME280;15525;45.568;5.448;2023-02-03T06:23:31;99733.13;;;3.16;61.07
28267;BME280;15525;45.568;5.448;2023-02-03T06:25:57;99724.97;;;3.54;60.13
28267;BME280;15525;45.568;5.448;2023-02-03T06:28:24;99739.19;;;3.68;59.46
28267;BME280;15525;45.568;5.448;2023-02-03T06:30:50;99748.78;;;3.69;58.55
28267;BME280;15525;45.568;5.448;2023-02-03T06:33:17;99740.09;;;3.75;58.12
28267;BME280;15525;45.568;5.448;2023-02-03T06:35:43;99741.66;;;3.84;58.04
28267;BME280;15525;45.568;5.448;2023-02-03T06:38:08;99750.69;;;3.46;59.50
28267;BME280;15525;45.568;5.448;2023-02-03T06:40:33;99742.31;;;3.71;58.44
28267;BME280;15525;45.568;5.448;2023-02-03T06:42:59;99747.88;;;3.76;58.19
28267;BME280;15525;45.568;5.448;2023-02-03T06:45:24;99745.75;;;3.43;59.66
28267;BME280;15525;45.568;5.448;2023-02-03T06:47:50;99748.13;;;3.67;58.69
28267;BME280;15525;45.568;5.448;2023-02-03T06:50:16;99743.09;;;3.72;58.03
28267;BME280;15525;45.568;5.448;2023-02-03T06:52:41;99744.03;;;3.64;58.79
28267;BME280;15525;45.568;5.448;2023-02-03T06:55:07;99747.03;;;3.76;57.51
28267;BME280;15525;45.568;5.448;2023-02-03T06:57:33;99750.03;;;3.29;59.25
28267;BME280;15525;45.568;5.448;2023-02-03T06:59:59;99748.50;;;3.20;60.26
28267;BME280;15525;45.568;5.448;2023-02-03T07:02:24;99754.38;;;3.08;61.08
28267;BME280;15525;45.568;5.448;2023-02-03T07:04:49;99750.94;;;3.22;60.89
28267;BME280;15525;45.568;5.448;2023-02-03T07:07:15;99745.09;;;3.41;59.95
28267;BME280;15525;45.568;5.448;2023-02-03T07:09:41;99743.84;;;3.66;59.14
28267;BME280;15525;45.568;5.448;2023-02-03T07:12:07;99758.28;;;3.78;58.17
28267;BME280;15525;45.568;5.448;2023-02-03T07:14:33;99762.91;;;3.61;58.44
28267;BME280;15525;45.568;5.448;2023-02-03T07:17:04;99766.84;;;2.99;61.50
28267;BME280;15525;45.568;5.448;2023-02-03T07:19:30;99785.25;;;3.30;61.20
28267;BME280;15525;45.568;5.448;2023-02-03T07:21:55;99792.34;;;3.66;60.14
28267;BME280;15525;45.568;5.448;2023-02-03T07:24:21;99795.88;;;3.73;58.89
28267;BME280;15525;45.568;5.448;2023-02-03T07:26:46;99789.13;;;3.85;58.20
28267;BME280;15525;45.568;5.448;2023-02-03T07:29:12;99788.97;;;3.87;57.91
28267;BME280;15525;45.568;5.448;2023-02-03T07:31:37;99789.41;;;3.76;58.29
28267;BME280;15525;45.568;5.448;2023-02-03T07:34:03;99804.00;;;3.72;58.95
28267;BME280;15525;45.568;5.448;2023-02-03T07:36:28;99802.19;;;3.87;58.40
28267;BME280;15525;45.568;5.448;2023-02-03T07:38:54;99804.84;;;3.87;57.94
28267;BME280;15525;45.568;5.448;2023-02-03T07:41:19;99801.81;;;3.90;58.11
28267;BME280;15525;45.568;5.448;2023-02-03T07:43:45;99801.25;;;3.51;59.95
28267;BME280;15525;45.568;5.448;2023-02-03T07:46:10;99803.00;;;3.87;58.74
28267;BME280;15525;45.568;5.448;2023-02-03T07:48:36;99798.91;;;3.99;58.11
28267;BME280;15525;45.568;5.448;2023-02-03T07:51:01;99802.00;;;3.59;59.56
28267;BME280;15525;45.568;5.448;2023-02-03T07:53:27;99804.47;;;3.61;60.42
28267;BME280;15525;45.568;5.448;2023-02-03T07:55:52;99807.94;;;3.90;59.11
28267;BME280;15525;45.568;5.448;2023-02-03T07:58:18;99806.47;;;4.17;58.56
28267;BME280;15525;45.568;5.448;2023-02-03T08:00:43;99790.72;;;4.30;58.11
28267;BME280;15525;45.568;5.448;2023-02-03T08:03:08;99803.47;;;4.41;57.17
28267;BME280;15525;45.568;5.448;2023-02-03T08:05:34;99790.13;;;4.49;57.39
28267;BME280;15525;45.568;5.448;2023-02-03T08:08:00;99796.53;;;3.75;61.20
28267;BME280;15525;45.568;5.448;2023-02-03T08:10:25;99782.31;;;4.26;59.92
28267;BME280;15525;45.568;5.448;2023-02-03T08:12:54;99777.34;;;4.73;58.67
28267;BME280;15525;45.568;5.448;2023-02-03T08:15:20;99783.72;;;4.79;58.79
28267;BME280;15525;45.568;5.448;2023-02-03T08:17:47;99801.84;;;4.96;57.36
28267;BME280;15525;45.568;5.448;2023-02-03T08:20:12;99817.72;;;4.75;59.37
28267;BME280;15525;45.568;5.448;2023-02-03T08:22:38;99801.31;;;4.30;61.38
28267;BME280;15525;45.568;5.448;2023-02-03T08:25:03;99812.44;;;4.75;60.93
28267;BME280;15525;45.568;5.448;2023-02-03T08:27:30;99809.97;;;4.95;59.70
28267;BME280;15525;45.568;5.448;2023-02-03T08:29:56;99801.72;;;5.32;58.93
28267;BME280;15525;45.568;5.448;2023-02-03T08:32:21;99817.31;;;5.90;57.72
28267;BME280;15525;45.568;5.448;2023-02-03T08:34:48;99820.94;;;6.23;57.24
28267;BME280;15525;45.568;5.448;2023-02-03T08:37:16;99813.13;;;6.15;57.87
28267;BME280;15525;45.568;5.448;2023-02-03T08:39:41;99811.91;;;6.64;56.94
28267;BME280;15525;45.568;5.448;2023-02-03T08:42:07;99810.94;;;6.78;57.05
28267;BME280;15525;45.568;5.448;2023-02-03T08:44:33;99811.78;;;7.05;56.57
28267;BME280;15525;45.568;5.448;2023-02-03T08:46:59;99823.06;;;7.20;57.30
28267;BME280;15525;45.568;5.448;2023-02-03T08:49:26;99815.06;;;7.20;57.58
28267;BME280;15525;45.568;5.448;2023-02-03T08:51:53;99816.72;;;7.14;58.10
28267;BME280;15525;45.568;5.448;2023-02-03T08:54:18;99814.88;;;7.41;57.19
28267;BME280;15525;45.568;5.448;2023-02-03T08:56:44;99815.06;;;7.85;56.54
28267;BME280;15525;45.568;5.448;2023-02-03T08:59:11;99825.91;;;8.03;56.17
28267;BME280;15525;45.568;5.448;2023-02-03T09:01:37;99825.06;;;8.22;55.40
28267;BME280;15525;45.568;5.448;2023-02-03T09:04:05;99815.38;;;8.21;56.58
28267;BME280;15525;45.568;5.448;2023-02-03T09:06:33;99812.56;;;8.60;54.70
28267;BME280;15525;45.568;5.448;2023-02-03T09:08:58;99821.16;;;8.68;55.07
28267;BME280;15525;45.568;5.448;2023-02-03T09:11:24;99814.34;;;9.10;53.87
28267;BME280;15525;45.568;5.448;2023-02-03T09:13:49;99820.50;;;9.10;54.59
28267;BME280;15525;45.568;5.448;2023-02-03T09:16:17;99816.44;;;9.32;54.32
28267;BME280;15525;45.568;5.448;2023-02-03T09:18:44;99816.25;;;9.27;54.83
28267;BME280;15525;45.568;5.448;2023-02-03T09:21:10;99818.53;;;9.55;53.75
28267;BME280;15525;45.568;5.448;2023-02-03T09:23:37;99820.19;;;9.74;53.04
28267;BME280;15525;45.568;5.448;2023-02-03T09:26:04;99823.13;;;9.66;54.01
28267;BME280;15525;45.568;5.448;2023-02-03T09:28:29;99833.81;;;10.15;52.36
28267;BME280;15525;45.568;5.448;2023-02-03T09:31:02;99827.97;;;10.00;52.54
28267;BME280;15525;45.568;5.448;2023-02-03T09:33:28;99833.19;;;10.49;51.93
28267;BME280;15525;45.568;5.448;2023-02-03T09:35:54;99838.25;;;10.39;51.56
28267;BME280;15525;45.568;5.448;2023-02-03T09:38:20;99817.47;;;10.41;51.65
28267;BME280;15525;45.568;5.448;2023-02-03T09:40:52;99846.09;;;10.88;50.05
28267;BME280;15525;45.568;5.448;2023-02-03T09:43:45;99832.06;;;11.04;49.75
28267;BME280;15525;45.568;5.448;2023-02-03T09:46:22;99832.56;;;11.12;49.46
28267;BME280;15525;45.568;5.448;2023-02-03T09:49:14;99836.69;;;11.91;49.03
28267;BME280;15525;45.568;5.448;2023-02-03T09:51:54;99836.19;;;11.29;50.38
28267;BME280;15525;45.568;5.448;2023-02-03T09:54:46;99836.09;;;11.36;49.25
28267;BME280;15525;45.568;5.448;2023-02-03T09:57:21;99832.31;;;11.55;49.19
28267;BME280;15525;45.568;5.448;2023-02-03T09:59:47;99839.75;;;11.53;49.88
28267;BME280;15525;45.568;5.448;2023-02-03T10:04:57;99834.94;;;11.20;49.69
28267;BME280;15525;45.568;5.448;2023-02-03T10:07:37;99822.31;;;10.62;50.50
28267;BME280;15525;45.568;5.448;2023-02-03T10:10:16;99840.88;;;11.22;50.05
28267;BME280;15525;45.568;5.448;2023-02-03T10:12:58;99847.66;;;11.89;49.13
28267;BME280;15525;45.568;5.448;2023-02-03T10:18:09;99832.88;;;11.45;50.05
28267;BME280;15525;45.568;5.448;2023-02-03T10:20:43;99823.59;;;12.06;49.37
28267;BME280;15525;45.568;5.448;2023-02-03T10:23:17;99831.72;;;12.45;46.97
28267;BME280;15525;45.568;5.448;2023-02-03T10:25:52;99835.81;;;12.36;48.21
28267;BME280;15525;45.568;5.448;2023-02-03T10:28:21;99838.34;;;12.94;47.57
28267;BME280;15525;45.568;5.448;2023-02-03T10:30:50;99833.03;;;13.55;46.49
28267;BME280;15525;45.568;5.448;2023-02-03T10:33:18;99826.69;;;12.88;46.76
28267;BME280;15525;45.568;5.448;2023-02-03T10:36:25;99838.31;;;11.92;46.95
28267;BME280;15525;45.568;5.448;2023-02-03T10:39:11;99832.53;;;13.58;46.64
28267;BME280;15525;45.568;5.448;2023-02-03T10:41:41;99821.50;;;13.76;45.31
28267;BME280;15525;45.568;5.448;2023-02-03T10:44:08;99807.94;;;14.04;43.50
28267;BME280;15525;45.568;5.448;2023-02-03T10:46:38;99817.78;;;13.77;43.60
28267;BME280;15525;45.568;5.448;2023-02-03T10:49:04;99797.25;;;13.92;43.61
28267;BME280;15525;45.568;5.448;2023-02-03T10:51:44;99800.78;;;13.93;43.31
28267;BME280;15525;45.568;5.448;2023-02-03T10:54:40;99798.41;;;13.96;42.59
28267;BME280;15525;45.568;5.448;2023-02-03T10:57:11;99807.09;;;14.20;42.41
28267;BME280;15525;45.568;5.448;2023-02-03T10:59:43;99793.16;;;14.23;41.70
28267;BME280;15525;45.568;5.448;2023-02-03T11:02:20;99790.56;;;13.95;42.65
28267;BME280;15525;45.568;5.448;2023-02-03T11:04:46;99795.88;;;14.23;42.52
28267;BME280;15525;45.568;5.448;2023-02-03T11:07:25;99796.00;;;14.33;40.07
28267;BME280;15525;45.568;5.448;2023-02-03T11:09:52;99789.06;;;14.85;40.38
28267;BME280;15525;45.568;5.448;2023-02-03T11:12:18;99778.97;;;15.28;41.18
28267;BME280;15525;45.568;5.448;2023-02-03T11:14:46;99788.63;;;15.24;39.72
28267;BME280;15525;45.568;5.448;2023-02-03T11:17:17;99783.66;;;15.38;40.07
28267;BME280;15525;45.568;5.448;2023-02-03T11:19:45;99787.78;;;15.19;39.80
28267;BME280;15525;45.568;5.448;2023-02-03T11:22:13;99787.28;;;14.09;41.58
28267;BME280;15525;45.568;5.448;2023-02-03T11:24:50;99798.44;;;13.63;41.54
28267;BME280;15525;45.568;5.448;2023-02-03T11:27:17;99788.75;;;14.38;40.47
28267;BME280;15525;45.568;5.448;2023-02-03T11:29:46;99779.00;;;14.75;40.04
28267;BME280;15525;45.568;5.448;2023-02-03T11:32:30;99780.09;;;14.79;39.82
28267;BME280;15525;45.568;5.448;2023-02-03T11:35:16;99775.81;;;13.81;40.54
28267;BME280;15525;45.568;5.448;2023-02-03T11:37:47;99787.88;;;14.11;39.78
28267;BME280;15525;45.568;5.448;2023-02-03T11:42:41;99789.22;;;13.76;41.16
28267;BME280;15525;45.568;5.448;2023-02-03T11:47:51;99781.69;;;14.32;40.18
28267;BME280;15525;45.568;5.448;2023-02-03T11:56:08;99799.72;;;13.94;41.28
28267;BME280;15525;45.568;5.448;2023-02-03T12:05:03;99790.03;;;14.31;42.33
28267;BME280;15525;45.568;5.448;2023-02-03T12:10:58;99795.78;;;14.01;43.09
28267;BME280;15525;45.568;5.448;2023-02-03T12:14:26;99785.88;;;14.23;42.13
28267;BME280;15525;45.568;5.448;2023-02-03T12:16:41;99776.38;;;14.37;42.42
28267;BME280;15525;45.568;5.448;2023-02-03T12:19:21;99780.91;;;14.80;42.24
28267;BME280;15525;45.568;5.448;2023-02-03T12:24:56;99776.25;;;15.28;41.42
28267;BME280;15525;45.568;5.448;2023-02-03T12:27:49;99757.50;;;14.37;42.21
28267;BME280;15525;45.568;5.448;2023-02-03T12:30:38;99747.75;;;14.31;42.38
28267;BME280;15525;45.568;5.448;2023-02-03T12:33:25;99753.75;;;14.86;41.35
28267;BME280;15525;45.568;5.448;2023-02-03T12:36:04;99750.94;;;14.28;43.08
28267;BME280;15525;45.568;5.448;2023-02-03T12:38:44;99752.81;;;14.76;42.20
28267;BME280;15525;45.568;5.448;2023-02-03T12:41:18;99736.09;;;15.00;40.73
28267;BME280;15525;45.568;5.448;2023-02-03T12:43:47;99732.00;;;15.29;40.90
28267;BME280;15525;45.568;5.448;2023-02-03T12:46:30;99716.53;;;15.88;39.75
28267;BME280;15525;45.568;5.448;2023-02-03T12:51:44;99710.31;;;16.49;38.22
28267;BME280;15525;45.568;5.448;2023-02-03T12:57:33;99705.50;;;15.16;40.79
28267;BME280;15525;45.568;5.448;2023-02-03T13:02:57;99692.09;;;16.24;40.14
28267;BME280;15525;45.568;5.448;2023-02-03T13:05:41;99690.75;;;16.32;37.98
28267;BME280;15525;45.568;5.448;2023-02-03T13:08:15;99684.38;;;16.53;39.35
28267;BME280;15525;45.568;5.448;2023-02-03T13:10:53;99681.44;;;16.84;38.58
28267;BME280;15525;45.568;5.448;2023-02-03T13:13:30;99677.88;;;16.49;38.13
28267;BME280;15525;45.568;5.448;2023-02-03T13:16:00;99688.16;;;15.44;39.35
28267;BME280;15525;45.568;5.448;2023-02-03T13:18:35;99667.03;;;15.72;38.73
28267;BME280;15525;45.568;5.448;2023-02-03T13:21:02;99669.44;;;15.69;39.35
28267;BME280;15525;45.568;5.448;2023-02-03T13:23:27;99673.59;;;16.73;37.78
28267;BME280;15525;45.568;5.448;2023-02-03T13:26:35;99669.41;;;16.30;37.27
28267;BME280;15525;45.568;5.448;2023-02-03T13:29:15;99661.84;;;15.61;38.86
28267;BME280;15525;45.568;5.448;2023-02-03T13:42:30;99643.56;;;16.74;37.98
28267;BME280;15525;45.568;5.448;2023-02-03T13:47:55;99629.41;;;17.72;35.77
28267;BME280;15525;45.568;5.448;2023-02-03T13:50:26;99629.78;;;18.14;36.12
28267;BME280;15525;45.568;5.448;2023-02-03T13:55:38;99623.53;;;17.25;37.11
28267;BME280;15525;45.568;5.448;2023-02-03T13:58:27;99623.81;;;16.49;37.87
28267;BME280;15525;45.568;5.448;2023-02-03T14:03:18;99631.66;;;16.65;37.96
28267;BME280;15525;45.568;5.448;2023-02-03T14:05:47;99639.03;;;15.98;38.78
28267;BME280;15525;45.568;5.448;2023-02-03T14:19:08;99654.19;;;15.99;38.96
28267;BME280;15525;45.568;5.448;2023-02-03T14:21:48;99637.53;;;16.27;37.99
28267;BME280;15525;45.568;5.448;2023-02-03T14:24:16;99642.59;;;15.11;40.10
28267;BME280;15525;45.568;5.448;2023-02-03T14:26:53;99648.00;;;16.14;39.27
28267;BME280;15525;45.568;5.448;2023-02-03T14:29:33;99630.75;;;15.17;40.31
28267;BME280;15525;45.568;5.448;2023-02-03T14:32:04;99644.88;;;14.61;41.31
28267;BME280;15525;45.568;5.448;2023-02-03T14:34:36;99652.13;;;14.60;42.05
28267;BME280;15525;45.568;5.448;2023-02-03T14:48:24;99626.63;;;16.02;38.66
28267;BME280;15525;45.568;5.448;2023-02-03T14:50:55;99626.28;;;15.74;39.62
28267;BME280;15525;45.568;5.448;2023-02-03T14:59:43;99618.75;;;15.34;40.25
28267;BME280;15525;45.568;5.448;2023-02-03T15:04:39;99619.22;;;16.49;39.09
28267;BME280;15525;45.568;5.448;2023-02-03T15:07:04;99622.75;;;16.80;37.74
28267;BME280;15525;45.568;5.448;2023-02-03T15:09:35;99615.44;;;16.50;38.23
28267;BME280;15525;45.568;5.448;2023-02-03T15:12:16;99621.94;;;16.64;38.02
28267;BME280;15525;45.568;5.448;2023-02-03T15:14:41;99621.69;;;15.84;38.95
28267;BME280;15525;45.568;5.448;2023-02-03T15:17:23;99626.78;;;16.62;38.66